sensor_id;sensor_type;location;lat;lon;timestamp;pressure;altitude;pressure_sealevel;temperature;humidity
5872;BME280;2962;51.312;7.378;2023-02-28T00:02:16;98628.03;;;-1.90;100.00
5872;BME280;2962;51.312;7.378;2023-02-28T00:04:42;98637.41;;;-1.87;100.00
5872;BME280;2962;51.312;7.378;2023-02-28T00:07:08;98633.44;;;-1.80;100.00
5872;BME280;2962;51.312;7.378;2023-02-28T00:09:33;98634.25;;;-1.79;100.00
5872;BME280;2962;51.312;7.378;2023-02-28T00:11:58;98627.31;;;-1.80;100.00
5872;BME280;2962;51.312;7.378;2023-02-28T00:14:24;98635.63;;;-1.72;100.00
5872;BME280;2962;51.312;7.378;2023-02-28T00:16:49;98634.84;;;-1.67;100.00
5872;BME280;2962;51.312;7.378;2023-02-28T00:19:14;98632.22;;;-1.57;100.00
5872;BME280;2962;51.312;7.378;2023-02-28T00:21:39;98632.50;;;-1.53;100.00
5872;BME280;2962;51.312;7.378;2023-02-28T00:24:06;98632.72;;;-1.65;100.00
5872;BME280;2962;51.312;7.378;2023-02-28T00:26:31;98641.84;;;-1.61;100.00
5872;BME280;2962;51.312;7.378;2023-02-28T00:28:57;98634.56;;;-1.65;100.00
5872;BME280;2962;51.312;7.378;2023-02-28T00:31:22;98619.31;;;-1.70;100.00
5872;BME280;2962;51.312;7.378;2023-02-28T00:33:48;98629.28;;;-1.60;100.00
5872;BME280;2962;51.312;7.378;2023-02-28T00:36:13;98630.38;;;-1.51;100.00
5872;BME280;2962;51.312;7.378;2023-02-28T00:38:39;98617.22;;;-1.68;100.00
5872;BME280;2962;51.312;7.378;2023-02-28T00:41:05;98627.13;;;-1.58;100.00
5872;BME280;2962;51.312;7.378;2023-02-28T00:43:32;98628.41;;;-1.66;100.00
5872;BME280;2962;51.312;7.378;2023-02-28T00:45:58;98615.56;;;-1.74;100.00
5872;BME280;2962;51.312;7.378;2023-02-28T00:48:23;98619.75;;;-1.88;100.00
5872;BME280;2962;51.312;7.378;2023-02-28T00:50:49;98619.41;;;-2.02;100.00
5872;BME280;2962;51.312;7.378;2023-02-28T00:53:15;98626.94;;;-1.94;100.00
5872;BME280;2962;51.312;7.378;2023-02-28T00:55:40;98621.50;;;-2.09;100.00
5872;BME280;2962;51.312;7.378;2023-02-28T00:58:05;98621.94;;;-2.23;100.00
5872;BME280;2962;51.312;7.378;2023-02-28T01:00:30;98617.06;;;-2.31;100.00
5872;BME280;2962;51.312;7.378;2023-02-28T01:02:56;98625.50;;;-2.44;100.00
5872;BME280;2962;51.312;7.378;2023-02-28T01:05:21;98624.69;;;-2.50;100.00
5872;BME280;2962;51.312;7.378;2023-02-28T01:07:46;98626.69;;;-2.62;100.00
5872;BME280;2962;51.312;7.378;2023-02-28T01:10:12;98623.06;;;-2.78;100.00
5872;BME280;2962;51.312;7.378;2023-02-28T01:12:37;98611.41;;;-2.72;100.00
5872;BME280;2962;51.312;7.378;2023-02-28T01:15:03;98626.69;;;-2.62;100.00
5872;BME280;2962;51.312;7.378;2023-02-28T01:17:29;98627.09;;;-2.75;100.00
5872;BME280;2962;51.312;7.378;2023-02-28T01:19:55;98620.78;;;-2.69;100.00
5872;BME280;2962;51.312;7.378;2023-02-28T01:22:21;98632.25;;;-2.68;100.00
5872;BME280;2962;51.312;7.378;2023-02-28T01:24:46;98615.38;;;-2.74;100.00
5872;BME280;2962;51.312;7.378;2023-02-28T01:27:12;98623.13;;;-2.73;100.00
5872;BME280;2962;51.312;7.378;2023-02-28T01:29:38;98616.41;;;-2.80;100.00
5872;BME280;2962;51.312;7.378;2023-02-28T01:32:03;98622.16;;;-2.88;100.00
5872;BME280;2962;51.312;7.378;2023-02-28T01:34:28;98608.78;;;-2.93;100.00
5872;BME280;2962;51.312;7.378;2023-02-28T01:36:54;98611.16;;;-2.97;100.00
5872;BME280;2962;51.312;7.378;2023-02-28T01:39:19;98602.03;;;-3.01;100.00
5872;BME280;2962;51.312;7.378;2023-02-28T01:41:44;98618.63;;;-2.99;100.00
5872;BME280;2962;51.312;7.378;2023-02-28T01:47:13;98605.63;;;-3.17;100.00
5872;BME280;2962;51.312;7.378;2023-02-28T01:49:39;98604.84;;;-3.13;100.00
5872;BME280;2962;51.312;7.378;2023-02-28T01:52:04;98596.88;;;-3.13;100.00
5872;BME280;2962;51.312;7.378;2023-02-28T01:54:31;98592.63;;;-3.09;100.00
5872;BME280;2962;51.312;7.378;2023-02-28T01:57:03;98588.25;;;-3.20;100.00
5872;BME280;2962;51.312;7.378;2023-02-28T01:59:42;98596.75;;;-3.23;100.00
5872;BME280;2962;51.312;7.378;2023-02-28T02:02:12;98596.81;;;-3.18;100.00
5872;BME280;2962;51.312;7.378;2023-02-28T02:04:41;98587.66;;;-3.27;100.00
5872;BME280;2962;51.312;7.378;2023-02-28T02:07:12;98587.09;;;-3.29;100.00
5872;BME280;2962;51.312;7.378;2023-02-28T02:09:38;98598.53;;;-3.34;100.00
5872;BME280;2962;51.312;7.378;2023-02-28T02:12:33;98599.31;;;-3.33;100.00
5872;BME280;2962;51.312;7.378;2023-02-28T02:15:13;98587.56;;;-3.37;100.00
5872;BME280;2962;51.312;7.378;2023-02-28T02:17:51;98582.53;;;-3.34;100.00
5872;BME280;2962;51.312;7.378;2023-02-28T02:25:55;98589.28;;;-3.26;100.00
5872;BME280;2962;51.312;7.378;2023-02-28T02:28:53;98595.09;;;-3.29;100.00
5872;BME280;2962;51.312;7.378;2023-02-28T02:36:51;98590.13;;;-3.42;100.00
5872;BME280;2962;51.312;7.378;2023-02-28T02:41:53;98582.16;;;-3.42;100.00
5872;BME280;2962;51.312;7.378;2023-02-28T02:44:33;98579.00;;;-3.39;100.00
5872;BME280;2962;51.312;7.378;2023-02-28T02:47:10;98593.06;;;-3.44;100.00
5872;BME280;2962;51.312;7.378;2023-02-28T02:49:40;98586.75;;;-3.60;100.00
5872;BME280;2962;51.312;7.378;2023-02-28T02:52:10;98589.97;;;-3.58;100.00
5872;BME280;2962;51.312;7.378;2023-02-28T02:54:41;98588.41;;;-3.54;100.00
5872;BME280;2962;51.312;7.378;2023-02-28T02:57:11;98573.97;;;-3.58;100.00
5872;BME280;2962;51.312;7.378;2023-02-28T02:59:41;98580.22;;;-3.69;100.00
5872;BME280;2962;51.312;7.378;2023-02-28T03:02:10;98589.84;;;-3.68;100.00
5872;BME280;2962;51.312;7.378;2023-02-28T03:04:42;98602.38;;;-3.69;100.00
5872;BME280;2962;51.312;7.378;2023-02-28T03:07:07;98595.81;;;-3.61;100.00
5872;BME280;2962;51.312;7.378;2023-02-28T03:09:34;98596.34;;;-3.59;100.00
5872;BME280;2962;51.312;7.378;2023-02-28T03:12:01;98589.84;;;-3.68;100.00
5872;BME280;2962;51.312;7.378;2023-02-28T03:14:48;98596.28;;;-3.64;100.00
5872;BME280;2962;51.312;7.378;2023-02-28T03:17:35;98596.84;;;-3.62;100.00
5872;BME280;2962;51.312;7.378;2023-02-28T03:22:56;98591.56;;;-3.79;100.00
5872;BME280;2962;51.312;7.378;2023-02-28T03:30:38;98579.00;;;-3.83;100.00
5872;BME280;2962;51.312;7.378;2023-02-28T03:33:11;98573.06;;;-3.90;100.00
5872;BME280;2962;51.312;7.378;2023-02-28T03:35:48;98577.31;;;-3.89;100.00
5872;BME280;2962;51.312;7.378;2023-02-28T03:38:31;98585.38;;;-3.84;100.00
5872;BME280;2962;51.312;7.378;2023-02-28T03:41:23;98581.41;;;-3.82;100.00
5872;BME280;2962;51.312;7.378;2023-02-28T03:43:55;98580.75;;;-3.72;100.00
5872;BME280;2962;51.312;7.378;2023-02-28T03:46:24;98568.34;;;-3.61;100.00
5872;BME280;2962;51.312;7.378;2023-02-28T03:49:05;98579.88;;;-3.56;100.00
5872;BME280;2962;51.312;7.378;2023-02-28T03:51:33;98581.25;;;-3.75;100.00
5872;BME280;2962;51.312;7.378;2023-02-28T03:54:05;98576.59;;;-3.63;100.00
5872;BME280;2962;51.312;7.378;2023-02-28T03:56:59;98581.59;;;-3.66;100.00
5872;BME280;2962;51.312;7.378;2023-02-28T03:59:39;98566.31;;;-3.76;100.00
5872;BME280;2962;51.312;7.378;2023-02-28T04:02:07;98587.19;;;-3.68;100.00
5872;BME280;2962;51.312;7.378;2023-02-28T04:04:33;98589.91;;;-3.63;100.00
5872;BME280;2962;51.312;7.378;2023-02-28T04:07:07;98592.56;;;-3.63;100.00
5872;BME280;2962;51.312;7.378;2023-02-28T04:09:33;98585.38;;;-3.62;100.00
5872;BME280;2962;51.312;7.378;2023-02-28T04:11:59;98582.97;;;-3.64;100.00
5872;BME280;2962;51.312;7.378;2023-02-28T04:14:24;98585.94;;;-3.60;100.00
5872;BME280;2962;51.312;7.378;2023-02-28T04:16:50;98592.56;;;-3.63;100.00
5872;BME280;2962;51.312;7.378;2023-02-28T04:19:16;98588.03;;;-3.62;100.00
5872;BME280;2962;51.312;7.378;2023-02-28T04:21:47;98579.50;;;-3.64;100.00
5872;BME280;2962;51.312;7.378;2023-02-28T04:24:15;98585.69;;;-3.59;100.00
5872;BME280;2962;51.312;7.378;2023-02-28T04:26:43;98585.16;;;-3.61;100.00
5872;BME280;2962;51.312;7.378;2023-02-28T04:29:10;98593.72;;;-3.54;100.00
5872;BME280;2962;51.312;7.378;2023-02-28T04:31:35;98581.88;;;-3.68;100.00
5872;BME280;2962;51.312;7.378;2023-02-28T04:34:01;98578.28;;;-3.57;100.00
5872;BME280;2962;51.312;7.378;2023-02-28T04:36:27;98576.53;;;-3.68;100.00
5872;BME280;2962;51.312;7.378;2023-02-28T04:38:52;98584.75;;;-3.70;100.00
5872;BME280;2962;51.312;7.378;2023-02-28T04:41:19;98594.13;;;-3.67;100.00
5872;BME280;2962;51.312;7.378;2023-02-28T04:43:44;98588.91;;;-3.79;100.00
5872;BME280;2962;51.312;7.378;2023-02-28T04:46:10;98588.34;;;-3.81;100.00
5872;BME280;2962;51.312;7.378;2023-02-28T04:48:37;98598.69;;;-3.84;100.00
5872;BME280;2962;51.312;7.378;2023-02-28T04:51:05;98598.69;;;-3.84;100.00
5872;BME280;2962;51.312;7.378;2023-02-28T04:53:31;98592.63;;;-3.80;100.00
5872;BME280;2962;51.312;7.378;2023-02-28T04:55:57;98595.03;;;-3.78;100.00
5872;BME280;2962;51.312;7.378;2023-02-28T04:58:23;98596.53;;;-3.65;100.00
5872;BME280;2962;51.312;7.378;2023-02-28T05:00:49;98593.97;;;-3.77;100.00
5872;BME280;2962;51.312;7.378;2023-02-28T05:03:14;98596.59;;;-3.82;100.00
5872;BME280;2962;51.312;7.378;2023-02-28T05:05:40;98596.09;;;-3.79;100.00
5872;BME280;2962;51.312;7.378;2023-02-28T05:08:05;98601.47;;;-3.74;100.00
5872;BME280;2962;51.312;7.378;2023-02-28T05:10:31;98598.19;;;-3.81;100.00
5872;BME280;2962;51.312;7.378;2023-02-28T05:12:56;98599.31;;;-3.99;100.00
5872;BME280;2962;51.312;7.378;2023-02-28T05:15:21;98605.53;;;-3.88;100.00
5872;BME280;2962;51.312;7.378;2023-02-28T05:17:46;98603.41;;;-3.91;100.00
5872;BME280;2962;51.312;7.378;2023-02-28T05:20:12;98605.59;;;-4.05;100.00
5872;BME280;2962;51.312;7.378;2023-02-28T05:22:39;98611.72;;;-4.05;100.00
5872;BME280;2962;51.312;7.378;2023-02-28T05:25:05;98607.59;;;-3.96;100.00
5872;BME280;2962;51.312;7.378;2023-02-28T05:27:31;98599.53;;;-4.01;100.00
5872;BME280;2962;51.312;7.378;2023-02-28T05:29:56;98603.09;;;-3.73;100.00
5872;BME280;2962;51.312;7.378;2023-02-28T05:32:22;98601.34;;;-3.84;100.00
5872;BME280;2962;51.312;7.378;2023-02-28T05:34:47;98587.75;;;-4.05;100.00
5872;BME280;2962;51.312;7.378;2023-02-28T05:37:13;98607.72;;;-3.85;100.00
5872;BME280;2962;51.312;7.378;2023-02-28T05:39:39;98615.78;;;-3.80;100.00
5872;BME280;2962;51.312;7.378;2023-02-28T05:42:04;98612.19;;;-3.91;100.00
5872;BME280;2962;51.312;7.378;2023-02-28T05:44:30;98613.41;;;-3.99;100.00
5872;BME280;2962;51.312;7.378;2023-02-28T05:46:55;98596.56;;;-4.04;100.00
5872;BME280;2962;51.312;7.378;2023-02-28T05:49:21;98617.03;;;-3.88;100.00
5872;BME280;2962;51.312;7.378;2023-02-28T05:51:46;98608.09;;;-3.99;100.00
5872;BME280;2962;51.312;7.378;2023-02-28T05:54:11;98602.03;;;-3.94;100.00
5872;BME280;2962;51.312;7.378;2023-02-28T05:56:37;98602.75;;;-3.99;100.00
5872;BME280;2962;51.312;7.378;2023-02-28T05:59:06;98619.44;;;-3.86;100.00
5872;BME280;2962;51.312;7.378;2023-02-28T06:01:43;98605.09;;;-4.02;100.00
5872;BME280;2962;51.312;7.378;2023-02-28T06:04:14;98615.00;;;-3.98;100.00
5872;BME280;2962;51.312;7.378;2023-02-28T06:06:46;98616.03;;;-3.82;100.00
5872;BME280;2962;51.312;7.378;2023-02-28T06:09:12;98624.16;;;-3.28;100.00
5872;BME280;2962;51.312;7.378;2023-02-28T06:11:37;98617.75;;;-2.78;100.00
5872;BME280;2962;51.312;7.378;2023-02-28T06:14:03;98616.47;;;-2.70;100.00
5872;BME280;2962;51.312;7.378;2023-02-28T06:16:30;98624.13;;;-2.52;100.00
5872;BME280;2962;51.312;7.378;2023-02-28T06:19:00;98616.84;;;-2.61;100.00
5872;BME280;2962;51.312;7.378;2023-02-28T06:21:26;98629.78;;;-3.02;100.00
5872;BME280;2962;51.312;7.378;2023-02-28T06:23:56;98631.13;;;-3.27;100.00
5872;BME280;2962;51.312;7.378;2023-02-28T06:26:21;98628.31;;;-3.59;100.00
5872;BME280;2962;51.312;7.378;2023-02-28T06:28:47;98631.03;;;-3.76;100.00
5872;BME280;2962;51.312;7.378;2023-02-28T06:31:15;98641.69;;;-3.76;100.00
5872;BME280;2962;51.312;7.378;2023-02-28T06:33:41;98639.19;;;-3.82;100.00
5872;BME280;2962;51.312;7.378;2023-02-28T06:36:08;98647.34;;;-3.89;100.00
5872;BME280;2962;51.312;7.378;2023-02-28T06:38:34;98645.38;;;-3.77;100.00
5872;BME280;2962;51.312;7.378;2023-02-28T06:41:00;98657.25;;;-3.84;100.00
5872;BME280;2962;51.312;7.378;2023-02-28T06:43:29;98645.31;;;-3.82;100.00
5872;BME280;2962;51.312;7.378;2023-02-28T06:45:57;98646.84;;;-3.86;100.00
5872;BME280;2962;51.312;7.378;2023-02-28T06:48:23;98660.63;;;-3.72;100.00
5872;BME280;2962;51.312;7.378;2023-02-28T06:50:48;98655.84;;;-3.70;100.00
5872;BME280;2962;51.312;7.378;2023-02-28T06:53:13;98659.72;;;-3.61;100.00
5872;BME280;2962;51.312;7.378;2023-02-28T06:55:40;98657.66;;;-3.54;100.00
5872;BME280;2962;51.312;7.378;2023-02-28T06:58:05;98655.25;;;-3.55;100.00
5872;BME280;2962;51.312;7.378;2023-02-28T07:00:43;98649.06;;;-3.39;100.00
5872;BME280;2962;51.312;7.378;2023-02-28T07:03:10;98663.09;;;-3.27;100.00
5872;BME280;2962;51.312;7.378;2023-02-28T07:05:36;98654.84;;;-3.25;100.00
5872;BME280;2962;51.312;7.378;2023-02-28T07:08:02;98668.03;;;-3.13;100.00
5872;BME280;2962;51.312;7.378;2023-02-28T07:10:28;98665.81;;;-3.00;100.00
5872;BME280;2962;51.312;7.378;2023-02-28T07:12:53;98663.94;;;-2.99;100.00
5872;BME280;2962;51.312;7.378;2023-02-28T07:15:18;98657.84;;;-2.95;100.00
5872;BME280;2962;51.312;7.378;2023-02-28T07:17:44;98677.63;;;-2.90;100.00
5872;BME280;2962;51.312;7.378;2023-02-28T07:20:09;98669.44;;;-2.84;100.00
5872;BME280;2962;51.312;7.378;2023-02-28T07:22:35;98663.72;;;-2.65;100.00
5872;BME280;2962;51.312;7.378;2023-02-28T07:25:00;98657.81;;;-2.46;100.00
5872;BME280;2962;51.312;7.378;2023-02-28T07:27:25;98653.22;;;-2.18;100.00
5872;BME280;2962;51.312;7.378;2023-02-28T07:29:52;98674.13;;;-2.05;100.00
5872;BME280;2962;51.312;7.378;2023-02-28T07:32:18;98671.03;;;-1.91;100.00
5872;BME280;2962;51.312;7.378;2023-02-28T07:34:44;98665.22;;;-1.78;100.00
5872;BME280;2962;51.312;7.378;2023-02-28T07:37:09;98662.66;;;-1.63;100.00
5872;BME280;2962;51.312;7.378;2023-02-28T07:39:34;98664.88;;;-1.50;100.00
5872;BME280;2962;51.312;7.378;2023-02-28T07:42:00;98668.06;;;-1.48;100.00
5872;BME280;2962;51.312;7.378;2023-02-28T07:44:26;98661.72;;;-1.36;100.00
5872;BME280;2962;51.312;7.378;2023-02-28T07:46:52;98662.13;;;-1.07;100.00
5872;BME280;2962;51.312;7.378;2023-02-28T07:49:17;98666.16;;;-0.94;100.00
5872;BME280;2962;51.312;7.378;2023-02-28T07:51:43;98676.34;;;-0.81;100.00
5872;BME280;2962;51.312;7.378;2023-02-28T07:54:08;98681.72;;;-0.71;100.00
5872;BME280;2962;51.312;7.378;2023-02-28T07:56:33;98662.75;;;-0.59;100.00
5872;BME280;2962;51.312;7.378;2023-02-28T07:58:58;98667.59;;;-0.36;100.00
5872;BME280;2962;51.312;7.378;2023-02-28T08:01:25;98671.88;;;-0.40;100.00
5872;BME280;2962;51.312;7.378;2023-02-28T08:03:50;98661.72;;;-0.38;100.00
5872;BME280;2962;51.312;7.378;2023-02-28T08:06:18;98683.41;;;-0.14;100.00
5872;BME280;2962;51.312;7.378;2023-02-28T08:08:44;98667.34;;;-0.04;100.00
5872;BME280;2962;51.312;7.378;2023-02-28T08:11:09;98671.38;;;0.04;100.00
5872;BME280;2962;51.312;7.378;2023-02-28T08:13:35;98673.50;;;0.12;100.00
5872;BME280;2962;51.312;7.378;2023-02-28T08:16:02;98687.41;;;0.30;100.00
5872;BME280;2962;51.312;7.378;2023-02-28T08:18:27;98684.16;;;0.38;100.00
5872;BME280;2962;51.312;7.378;2023-02-28T08:20:52;98689.78;;;0.46;100.00
5872;BME280;2962;51.312;7.378;2023-02-28T08:23:17;98691.38;;;0.58;100.00
5872;BME280;2962;51.312;7.378;2023-02-28T08:25:43;98671.44;;;0.79;100.00
5872;BME280;2962;51.312;7.378;2023-02-28T08:28:08;98683.81;;;0.75;100.00
5872;BME280;2962;51.312;7.378;2023-02-28T08:30:33;98683.22;;;0.93;100.00
5872;BME280;2962;51.312;7.378;2023-02-28T08:32:58;98687.59;;;0.64;100.00
5872;BME280;2962;51.312;7.378;2023-02-28T08:35:24;98686.84;;;0.38;100.00
5872;BME280;2962;51.312;7.378;2023-02-28T08:37:50;98681.72;;;0.57;100.00
5872;BME280;2962;51.312;7.378;2023-02-28T08:40:16;98680.28;;;0.80;100.00
5872;BME280;2962;51.312;7.378;2023-02-28T08:42:47;98682.84;;;1.15;100.00
5872;BME280;2962;51.312;7.378;2023-02-28T08:45:14;98665.44;;;1.52;100.00
5872;BME280;2962;51.312;7.378;2023-02-28T08:47:40;98670.88;;;1.81;100.00
5872;BME280;2962;51.312;7.378;2023-02-28T08:50:07;98678.28;;;1.94;100.00
5872;BME280;2962;51.312;7.378;2023-02-28T08:52:32;98661.34;;;1.94;100.00
5872;BME280;2962;51.312;7.378;2023-02-28T08:54:58;98677.78;;;2.22;100.00
5872;BME280;2962;51.312;7.378;2023-02-28T08:57:23;98681.94;;;2.09;100.00
5872;BME280;2962;51.312;7.378;2023-02-28T08:59:51;98682.88;;;2.23;100.00
5872;BME280;2962;51.312;7.378;2023-02-28T09:02:16;98674.84;;;2.18;100.00
5872;BME280;2962;51.312;7.378;2023-02-28T09:04:41;98662.03;;;2.39;100.00
5872;BME280;2962;51.312;7.378;2023-02-28T09:07:07;98671.41;;;2.12;100.00
5872;BME280;2962;51.312;7.378;2023-02-28T09:09:32;98670.75;;;2.26;100.00
5872;BME280;2962;51.312;7.378;2023-02-28T09:11:57;98677.41;;;2.33;100.00
5872;BME280;2962;51.312;7.378;2023-02-28T09:14:23;98681.91;;;2.38;100.00
5872;BME280;2962;51.312;7.378;2023-02-28T09:16:48;98673.63;;;2.34;100.00
5872;BME280;2962;51.312;7.378;2023-02-28T09:19:14;98670.91;;;2.39;100.00
5872;BME280;2962;51.312;7.378;2023-02-28T09:21:39;98674.00;;;2.52;100.00
5872;BME280;2962;51.312;7.378;2023-02-28T09:24:05;98660.69;;;2.84;100.00
5872;BME280;2962;51.312;7.378;2023-02-28T09:26:30;98685.31;;;2.49;100.00
5872;BME280;2962;51.312;7.378;2023-02-28T09:28:55;98665.88;;;1.99;100.00
5872;BME280;2962;51.312;7.378;2023-02-28T09:31:26;98673.44;;;1.97;100.00
5872;BME280;2962;51.312;7.378;2023-02-28T09:33:55;98671.88;;;1.90;100.00
5872;BME280;2962;51.312;7.378;2023-02-28T09:36:21;98677.50;;;1.55;100.00
5872;BME280;2962;51.312;7.378;2023-02-28T09:38:47;98669.34;;;1.26;100.00
5872;BME280;2962;51.312;7.378;2023-02-28T09:41:24;98675.34;;;1.12;100.00
5872;BME280;2962;51.312;7.378;2023-02-28T09:43:55;98662.81;;;0.87;100.00
5872;BME280;2962;51.312;7.378;2023-02-28T09:46:34;98662.41;;;0.60;100.00
5872;BME280;2962;51.312;7.378;2023-02-28T09:49:06;98672.28;;;0.75;100.00
5872;BME280;2962;51.312;7.378;2023-02-28T09:51:50;98670.97;;;0.67;100.00
5872;BME280;2962;51.312;7.378;2023-02-28T09:54:19;98670.38;;;0.75;100.00
5872;BME280;2962;51.312;7.378;2023-02-28T09:56:59;98672.09;;;0.40;100.00
5872;BME280;2962;51.312;7.378;2023-02-28T10:02:10;98690.72;;;0.91;100.00
5872;BME280;2962;51.312;7.378;2023-02-28T10:04:56;98676.56;;;1.30;100.00
5872;BME280;2962;51.312;7.378;2023-02-28T10:10:47;98693.03;;;1.63;100.00
5872;BME280;2962;51.312;7.378;2023-02-28T10:13:25;98680.22;;;1.89;100.00
5872;BME280;2962;51.312;7.378;2023-02-28T10:15:56;98671.94;;;2.67;100.00
5872;BME280;2962;51.312;7.378;2023-02-28T10:18:30;98681.19;;;2.80;96.97
5872;BME280;2962;51.312;7.378;2023-02-28T10:21:00;98676.91;;;2.79;95.28
5872;BME280;2962;51.312;7.378;2023-02-28T10:23:28;98677.88;;;2.40;96.38
5872;BME280;2962;51.312;7.378;2023-02-28T10:26:00;98677.69;;;2.32;100.00
5872;BME280;2962;51.312;7.378;2023-02-28T10:28:28;98664.63;;;2.73;98.95
5872;BME280;2962;51.312;7.378;2023-02-28T10:30:54;98668.59;;;3.42;94.20
5872;BME280;2962;51.312;7.378;2023-02-28T10:33:38;98656.25;;;3.74;88.66
5872;BME280;2962;51.312;7.378;2023-02-28T10:36:04;98657.81;;;3.61;85.96
5872;BME280;2962;51.312;7.378;2023-02-28T10:38:37;98659.44;;;3.76;82.16
5872;BME280;2962;51.312;7.378;2023-02-28T10:41:15;98662.00;;;4.19;82.90
5872;BME280;2962;51.312;7.378;2023-02-28T10:43:43;98645.81;;;3.67;77.35
5872;BME280;2962;51.312;7.378;2023-02-28T10:46:11;98645.69;;;3.78;76.71
5872;BME280;2962;51.312;7.378;2023-02-28T10:49:00;98659.03;;;4.02;73.29
5872;BME280;2962;51.312;7.378;2023-02-28T10:51:34;98656.31;;;4.34;72.85
5872;BME280;2962;51.312;7.378;2023-02-28T10:54:00;98649.13;;;4.71;75.40
5872;BME280;2962;51.312;7.378;2023-02-28T10:56:25;98655.09;;;5.23;76.85
5872;BME280;2962;51.312;7.378;2023-02-28T11:01:54;98640.13;;;5.98;69.55
5872;BME280;2962;51.312;7.378;2023-02-28T11:06:56;98637.94;;;6.63;74.12
5872;BME280;2962;51.312;7.378;2023-02-28T11:09:28;98636.59;;;6.51;69.03
5872;BME280;2962;51.312;7.378;2023-02-28T11:11:55;98639.22;;;7.40;68.69
5872;BME280;2962;51.312;7.378;2023-02-28T11:14:30;98631.59;;;6.76;70.08
5872;BME280;2962;51.312;7.378;2023-02-28T11:17:03;98634.28;;;7.33;73.35
5872;BME280;2962;51.312;7.378;2023-02-28T11:19:40;98638.56;;;7.34;71.98
5872;BME280;2962;51.312;7.378;2023-02-28T11:22:09;98643.66;;;8.05;68.00
5872;BME280;2962;51.312;7.378;2023-02-28T11:24:44;98633.28;;;8.16;61.66
5872;BME280;2962;51.312;7.378;2023-02-28T11:27:43;98629.25;;;8.30;61.26
5872;BME280;2962;51.312;7.378;2023-02-28T11:30:32;98622.47;;;7.64;58.14
5872;BME280;2962;51.312;7.378;2023-02-28T11:32:57;98637.63;;;7.47;58.49
5872;BME280;2962;51.312;7.378;2023-02-28T11:35:27;98619.75;;;7.12;55.44
5872;BME280;2962;51.312;7.378;2023-02-28T11:37:54;98623.41;;;6.58;60.53
5872;BME280;2962;51.312;7.378;2023-02-28T11:40:33;98621.00;;;5.72;62.96
5872;BME280;2962;51.312;7.378;2023-02-28T11:43:14;98627.69;;;5.75;58.79
5872;BME280;2962;51.312;7.378;2023-02-28T11:46:12;98632.22;;;6.02;59.22
5872;BME280;2962;51.312;7.378;2023-02-28T11:51:41;98620.31;;;6.82;57.54
5872;BME280;2962;51.312;7.378;2023-02-28T11:54:24;98626.00;;;6.72;55.19
5872;BME280;2962;51.312;7.378;2023-02-28T11:57:00;98630.44;;;7.25;54.69
5872;BME280;2962;51.312;7.378;2023-02-28T12:05:02;98633.69;;;8.44;57.30
5872;BME280;2962;51.312;7.378;2023-02-28T12:07:46;98629.25;;;8.30;53.36
5872;BME280;2962;51.312;7.378;2023-02-28T12:20:46;98619.91;;;9.38;55.55
5872;BME280;2962;51.312;7.378;2023-02-28T12:23:20;98621.66;;;8.92;50.06
5872;BME280;2962;51.312;7.378;2023-02-28T12:26:12;98618.00;;;7.33;50.79
5872;BME280;2962;51.312;7.378;2023-02-28T12:28:53;98611.63;;;7.38;56.48
5872;BME280;2962;51.312;7.378;2023-02-28T12:31:24;98600.72;;;7.98;62.54
5872;BME280;2962;51.312;7.378;2023-02-28T12:33:53;98597.88;;;8.03;63.23
5872;BME280;2962;51.312;7.378;2023-02-28T12:36:22;98598.97;;;8.88;58.12
5872;BME280;2962;51.312;7.378;2023-02-28T12:39:02;98588.59;;;9.11;56.97
5872;BME280;2962;51.312;7.378;2023-02-28T12:41:50;98577.66;;;9.40;53.12
5872;BME280;2962;51.312;7.378;2023-02-28T12:44:24;98589.22;;;9.58;53.32
5872;BME280;2962;51.312;7.378;2023-02-28T12:46:55;98566.47;;;9.42;50.31
5872;BME280;2962;51.312;7.378;2023-02-28T12:49:28;98584.31;;;8.80;52.28
5872;BME280;2962;51.312;7.378;2023-02-28T12:51:57;98564.06;;;9.40;54.24
5872;BME280;2962;51.312;7.378;2023-02-28T12:54:38;98569.06;;;10.05;52.44
5872;BME280;2962;51.312;7.378;2023-02-28T12:57:14;98559.97;;;9.67;53.10
5872;BME280;2962;51.312;7.378;2023-02-28T12:59:49;98552.66;;;9.26;50.48
5872;BME280;2962;51.312;7.378;2023-02-28T13:10:39;98555.91;;;9.61;51.76
5872;BME280;2962;51.312;7.378;2023-02-28T13:13:06;98558.44;;;9.78;48.45
5872;BME280;2962;51.312;7.378;2023-02-28T13:15:36;98567.78;;;9.90;45.27
5872;BME280;2962;51.312;7.378;2023-02-28T13:18:29;98566.38;;;11.15;42.57
5872;BME280;2962;51.312;7.378;2023-02-28T13:20:55;98546.69;;;11.21;43.90
5872;BME280;2962;51.312;7.378;2023-02-28T13:23:40;98551.28;;;11.73;41.09
5872;BME280;2962;51.312;7.378;2023-02-28T13:26:06;98547.66;;;11.97;40.51
5872;BME280;2962;51.312;7.378;2023-02-28T13:34:30;98541.47;;;11.85;43.54
5872;BME280;2962;51.312;7.378;2023-02-28T13:47:29;98551.91;;;12.58;38.44
5872;BME280;2962;51.312;7.378;2023-02-28T13:50:18;98542.47;;;13.07;38.68
5872;BME280;2962;51.312;7.378;2023-02-28T13:52:58;98544.06;;;12.25;39.44
5872;BME280;2962;51.312;7.378;2023-02-28T14:01:43;98532.78;;;12.27;40.59
5872;BME280;2962;51.312;7.378;2023-02-28T14:04:39;98534.06;;;12.64;38.09
5872;BME280;2962;51.312;7.378;2023-02-28T14:07:26;98532.16;;;12.65;37.23
5872;BME280;2962;51.312;7.378;2023-02-28T14:09:59;98534.56;;;12.19;37.82
5872;BME280;2962;51.312;7.378;2023-02-28T14:15:49;98513.38;;;13.76;37.95
5872;BME280;2962;51.312;7.378;2023-02-28T14:18:22;98515.03;;;13.81;38.00
5872;BME280;2962;51.312;7.378;2023-02-28T14:20:49;98512.78;;;13.86;37.59
5872;BME280;2962;51.312;7.378;2023-02-28T14:26:08;98515.13;;;14.07;35.72
5872;BME280;2962;51.312;7.378;2023-02-28T14:28:46;98515.13;;;14.80;34.52
5872;BME280;2962;51.312;7.378;2023-02-28T14:31:34;98518.22;;;14.52;35.30
5872;BME280;2962;51.312;7.378;2023-02-28T14:36:40;98517.88;;;13.65;36.36
5872;BME280;2962;51.312;7.378;2023-02-28T14:39:12;98517.81;;;13.42;36.37
5872;BME280;2962;51.312;7.378;2023-02-28T14:41:40;98516.00;;;14.87;35.35
5872;BME280;2962;51.312;7.378;2023-02-28T14:44:22;98518.72;;;14.11;35.13
5872;BME280;2962;51.312;7.378;2023-02-28T14:46:53;98518.78;;;13.73;35.25
5872;BME280;2962;51.312;7.378;2023-02-28T14:49:44;98518.38;;;13.32;37.12
5872;BME280;2962;51.312;7.378;2023-02-28T14:52:22;98512.72;;;13.05;37.57
5872;BME280;2962;51.312;7.378;2023-02-28T14:54:52;98513.28;;;12.28;38.83
5872;BME280;2962;51.312;7.378;2023-02-28T14:57:27;98511.59;;;12.55;38.58
5872;BME280;2962;51.312;7.378;2023-02-28T15:00:18;98517.78;;;12.87;39.81
5872;BME280;2962;51.312;7.378;2023-02-28T15:02:45;98519.72;;;12.87;38.71
5872;BME280;2962;51.312;7.378;2023-02-28T15:07:45;98513.75;;;13.36;37.49
5872;BME280;2962;51.312;7.378;2023-02-28T15:10:13;98509.63;;;14.30;35.89